createdAt,value
2018-02-12T00:00:20.143Z,7.2
2018-02-12T00:01:20.482Z,7.24
2018-02-12T00:02:20.164Z,7.28
2018-02-12T00:03:20.468Z,7.23
2018-02-12T00:04:20.193Z,7.24
2018-02-12T00:05:20.196Z,7.24
2018-02-12T00:06:20.539Z,7.17
2018-02-12T00:07:20.501Z,7.2
2018-02-12T00:08:19.955Z,7.2
2018-02-12T00:09:20.525Z,7.13
2018-02-12T00:10:20.257Z,7.2
2018-02-12T00:11:20.601Z,7.14
2018-02-12T00:12:20.564Z,7.17
2018-02-12T00:13:20.294Z,7.06
2018-02-12T00:14:20.307Z,7.18
2018-02-12T00:15:20.036Z,7.13
2018-02-12T00:16:20.329Z,7.2
2018-02-12T00:17:20.620Z,7.06
2018-02-12T00:18:20.072Z,7.1
2018-02-12T00:19:20.645Z,7.1
2018-02-12T00:20:20.377Z,7.02
2018-02-12T00:21:20.666Z,7.05
2018-02-12T00:22:20.400Z,7.05
2018-02-12T00:23:20.690Z,7.07
2018-02-12T00:24:20.424Z,6.89
2018-02-12T00:25:20.432Z,6.95
2018-02-12T00:26:20.733Z,6.88
2018-02-12T00:27:20.459Z,6.89
2018-02-12T00:28:20.188Z,6.88
2018-02-12T00:29:20.482Z,6.96
2018-02-12T00:30:20.776Z,6.92
2018-02-12T00:31:20.807Z,6.97
2018-02-12T00:32:20.514Z,6.93
2018-02-12T00:33:20.245Z,6.93
2018-02-12T00:34:20.258Z,6.99
2018-02-12T00:35:20.829Z,6.85
2018-02-12T00:36:20.283Z,6.93
2018-02-12T00:37:20.575Z,6.84
2018-02-12T00:38:20.584Z,6.85
2018-02-12T00:39:20.875Z,6.92
2018-02-12T00:40:20.606Z,6.85
2018-02-12T00:41:20.621Z,6.85
2018-02-12T00:42:20.638Z,6.77
2018-02-12T00:43:20.362Z,6.88
2018-02-12T00:44:20.945Z,6.81
2018-02-12T00:45:20.665Z,6.84
2018-02-12T00:46:20.677Z,6.81
2018-02-12T00:47:20.410Z,6.81
2018-02-12T00:48:20.420Z,6.84
2018-02-12T00:49:21.004Z,6.79
2018-02-12T00:50:21.004Z,6.69
2018-02-12T00:51:20.735Z,6.74
2018-02-12T00:52:21.028Z,6.77
2018-02-12T00:53:20.477Z,6.74
2018-02-12T00:54:20.488Z,6.78
2018-02-12T00:55:21.062Z,6.75
2018-02-12T00:56:20.791Z,6.7
2018-02-12T00:57:21.135Z,6.72
2018-02-12T00:58:20.819Z,6.72
2018-02-12T00:59:20.854Z,6.67
2018-02-12T01:00:20.559Z,6.63
2018-02-12T01:01:21.131Z,6.6
2018-02-12T01:02:20.633Z,6.69
2018-02-12T01:03:20.873Z,6.64
2018-02-12T01:04:21.165Z,6.67
2018-02-12T01:05:20.618Z,6.7
2018-02-12T01:06:20.912Z,6.6
2018-02-12T01:07:20.970Z,6.64
2018-02-12T01:08:20.930Z,6.64
2018-02-12T01:09:20.663Z,6.63
2018-02-12T01:10:20.955Z,6.63
2018-02-12T01:11:21.005Z,6.64
2018-02-12T01:12:21.025Z,6.6
2018-02-12T01:13:21.271Z,6.62
2018-02-12T01:14:21.000Z,6.64
2018-02-12T01:15:21.290Z,6.57
2018-02-12T01:16:21.301Z,6.59
2018-02-12T01:17:21.086Z,6.6
2018-02-12T01:18:21.044Z,6.57
2018-02-12T01:19:20.777Z,6.62
2018-02-12T01:20:21.066Z,6.49
2018-02-12T01:21:21.080Z,6.64
2018-02-12T01:22:21.144Z,6.54
2018-02-12T01:23:21.384Z,6.63
2018-02-12T01:24:21.395Z,6.59
2018-02-12T01:25:21.132Z,6.57
2018-02-12T01:26:21.137Z,6.57
2018-02-12T01:27:21.197Z,6.54
2018-02-12T01:28:20.879Z,6.6
2018-02-12T01:29:21.448Z,6.59
2018-02-12T01:30:21.464Z,6.56
2018-02-12T01:31:21.472Z,6.52
2018-02-12T01:32:21.259Z,6.52
2018-02-12T01:33:21.214Z,6.52
2018-02-12T01:34:21.224Z,6.52
2018-02-12T01:35:20.958Z,6.54
2018-02-12T01:36:21.529Z,6.49
2018-02-12T01:37:21.309Z,6.49
2018-02-12T01:38:21.272Z,6.46
2018-02-12T01:39:21.290Z,6.48
2018-02-12T01:40:21.294Z,6.52
2018-02-12T01:41:21.306Z,6.45
2018-02-12T01:42:21.364Z,6.44
2018-02-12T01:43:21.325Z,6.51
2018-02-12T01:44:21.056Z,6.48
2018-02-12T01:45:21.351Z,6.51
2018-02-12T01:46:21.641Z,6.49
2018-02-12T01:47:21.091Z,6.51
2018-02-12T01:48:21.384Z,6.46
2018-02-12T01:49:21.113Z,6.51
2018-02-12T01:50:21.124Z,6.45
2018-02-12T01:51:21.425Z,6.48
2018-02-12T01:52:21.477Z,6.35
2018-02-12T01:53:21.442Z,6.51
2018-02-12T01:54:21.729Z,6.45
2018-02-12T01:55:21.466Z,6.46
2018-02-12T01:56:21.763Z,6.36
2018-02-12T01:57:21.851Z,6.46
2018-02-12T01:58:21.494Z,6.31
2018-02-12T01:59:21.226Z,6.33
2018-02-12T02:00:21.237Z,6.41
2018-02-12T02:01:21.246Z,6.36
2018-02-12T02:02:21.261Z,6.35
2018-02-12T02:03:21.832Z,6.39
2018-02-12T02:04:21.843Z,6.36
2018-02-12T02:05:21.854Z,6.39
2018-02-12T02:06:21.872Z,6.35
2018-02-12T02:07:22.026Z,6.36
2018-02-12T02:08:21.885Z,6.33
2018-02-12T02:09:21.618Z,6.36
2018-02-12T02:10:21.628Z,6.36
2018-02-12T02:11:21.357Z,6.33
2018-02-12T02:12:21.929Z,6.31
2018-02-12T02:13:21.662Z,6.39
2018-02-12T02:14:21.958Z,6.36
2018-02-12T02:15:21.966Z,6.3
2018-02-12T02:16:21.692Z,6.33
2018-02-12T02:17:21.756Z,6.27
2018-02-12T02:18:21.737Z,6.35
2018-02-12T02:19:21.728Z,6.26
2018-02-12T02:20:22.019Z,6.3
2018-02-12T02:21:22.036Z,6.31
2018-02-12T02:22:21.529Z,6.28
2018-02-12T02:23:22.053Z,6.22
2018-02-12T02:24:22.063Z,6.17
2018-02-12T02:25:21.793Z,6.28
2018-02-12T02:26:21.544Z,6.24
2018-02-12T02:27:21.866Z,6.26
2018-02-12T02:28:21.825Z,6.16
2018-02-12T02:29:21.555Z,6.12
2018-02-12T02:30:21.567Z,6.24
2018-02-12T02:31:21.866Z,6.2
2018-02-12T02:32:21.922Z,6.17
2018-02-12T02:33:21.607Z,6.2
2018-02-12T02:34:22.177Z,6.2
2018-02-12T02:35:21.904Z,6.26
2018-02-12T02:36:22.203Z,6.09
2018-02-12T02:37:21.998Z,6.16
2018-02-12T02:38:21.662Z,6.09
2018-02-12T02:39:21.688Z,6.22
2018-02-12T02:40:21.678Z,6.17
2018-02-12T02:41:21.970Z,6.14
2018-02-12T02:42:22.373Z,6.09
2018-02-12T02:43:21.995Z,6.09
2018-02-12T02:44:22.013Z,6.11
2018-02-12T02:45:22.295Z,6.09
2018-02-12T02:46:22.025Z,6.12
2018-02-12T02:47:22.473Z,6.2
2018-02-12T02:48:22.363Z,6.12
2018-02-12T02:49:21.778Z,6.14
2018-02-12T02:50:22.072Z,6.19
2018-02-12T02:51:22.361Z,6.11
2018-02-12T02:52:22.517Z,6.08
2018-02-12T02:53:22.105Z,6.16
2018-02-12T02:54:22.113Z,6.11
2018-02-12T02:55:22.414Z,6.05
2018-02-12T02:56:22.133Z,6.12
2018-02-12T02:57:22.195Z,6.09
2018-02-12T02:58:22.437Z,6.09
2018-02-12T02:59:22.455Z,6.09
2018-02-12T03:00:22.196Z,6.04
2018-02-12T03:01:21.908Z,6.01
2018-02-12T03:02:22.409Z,6.04
2018-02-12T03:03:22.219Z,6.08
2018-02-12T03:04:22.224Z,6.01
2018-02-12T03:05:22.510Z,6.04
2018-02-12T03:06:21.961Z,6.05
2018-02-12T03:07:22.632Z,6.05
2018-02-12T03:08:22.263Z,6.09
2018-02-12T03:09:21.994Z,6.01
2018-02-12T03:10:22.004Z,6.08
2018-02-12T03:11:22.295Z,6.09
2018-02-12T03:12:22.076Z,6.02
2018-02-12T03:13:22.317Z,6.07
2018-02-12T03:14:22.607Z,6.07
2018-02-12T03:15:22.620Z,6.01
2018-02-12T03:16:22.348Z,6.09
2018-02-12T03:17:22.183Z,5.99
2018-02-12T03:18:22.375Z,5.94
2018-02-12T03:19:22.101Z,6.02
2018-02-12T03:20:22.393Z,6.02
2018-02-12T03:21:22.406Z,6.05
2018-02-12T03:22:22.186Z,6.09
2018-02-12T03:23:22.707Z,6.04
2018-02-12T03:24:22.438Z,6.07
2018-02-12T03:25:22.450Z,5.99
2018-02-12T03:26:22.738Z,6.07
2018-02-12T03:27:22.849Z,5.98
2018-02-12T03:28:22.761Z,6.09
2018-02-12T03:29:22.500Z,5.97
2018-02-12T03:30:22.509Z,5.98
2018-02-12T03:31:22.513Z,5.99
2018-02-12T03:32:22.244Z,5.97
2018-02-12T03:33:22.252Z,6.11
2018-02-12T03:34:22.265Z,6.01
2018-02-12T03:35:22.274Z,5.99
2018-02-12T03:36:22.565Z,5.98
2018-02-12T03:37:22.296Z,5.99
2018-02-12T03:38:22.589Z,5.99
2018-02-12T03:39:22.600Z,5.99
2018-02-12T03:40:22.327Z,6.12
2018-02-12T03:41:22.620Z,6.05
2018-02-12T03:42:22.630Z,6.02
2018-02-12T03:43:22.756Z,6.05
2018-02-12T03:44:22.651Z,6.05
2018-02-12T03:45:22.948Z,6.04
2018-02-12T03:46:22.395Z,6.01
2018-02-12T03:47:22.404Z,6.08
2018-02-12T03:48:22.974Z,6.04
2018-02-12T03:49:22.704Z,6.07
2018-02-12T03:50:22.724Z,6.02
2018-02-12T03:51:23.009Z,6.05
2018-02-12T03:52:22.748Z,6.05
2018-02-12T03:53:22.748Z,6.04
2018-02-12T03:54:22.478Z,6.02
2018-02-12T03:55:22.770Z,6.11
2018-02-12T03:56:22.787Z,6.12
2018-02-12T03:57:22.803Z,6.07
2018-02-12T03:58:23.083Z,6.17
2018-02-12T03:59:23.114Z,6.16
2018-02-12T04:00:22.823Z,6.14
2018-02-12T04:01:22.525Z,6.08
2018-02-12T04:02:22.844Z,6.11
2018-02-12T04:03:22.864Z,6.17
2018-02-12T04:04:22.586Z,6.12
2018-02-12T04:05:22.879Z,6.09
2018-02-12T04:06:22.888Z,6.11
2018-02-12T04:07:22.900Z,6.14
2018-02-12T04:08:22.911Z,6.16
2018-02-12T04:09:22.641Z,6.11
2018-02-12T04:10:22.654Z,6.17
2018-02-12T04:11:22.941Z,6.11
2018-02-12T04:12:22.673Z,6.14
2018-02-12T04:13:22.736Z,6.16
2018-02-12T04:14:23.267Z,6.12
2018-02-12T04:15:22.705Z,6.12
2018-02-12T04:16:22.997Z,6.12
2018-02-12T04:17:22.728Z,6.16
2018-02-12T04:18:23.068Z,6.17
2018-02-12T04:19:23.029Z,6.17
2018-02-12T04:20:23.322Z,6.17
2018-02-12T04:21:22.772Z,6.09
2018-02-12T04:22:23.063Z,6.27
2018-02-12T04:23:22.853Z,6.09
2018-02-12T04:24:23.084Z,6.24
2018-02-12T04:25:23.375Z,6.16
2018-02-12T04:26:23.387Z,6.11
2018-02-12T04:27:23.120Z,6.14
2018-02-12T04:28:22.848Z,6.14
2018-02-12T04:29:23.139Z,6.14
2018-02-12T04:30:23.150Z,6.17
2018-02-12T04:31:23.578Z,6.22
2018-02-12T04:32:23.457Z,6.16
2018-02-12T04:33:23.184Z,6.26
2018-02-12T04:34:22.908Z,6.31
2018-02-12T04:35:23.482Z,6.26
2018-02-12T04:36:22.933Z,6.27
2018-02-12T04:37:23.222Z,6.28
2018-02-12T04:38:23.564Z,6.24
2018-02-12T04:39:23.246Z,6.27
2018-02-12T04:40:23.540Z,6.28
2018-02-12T04:41:23.270Z,6.2
2018-02-12T04:42:23.278Z,6.22
2018-02-12T04:43:23.340Z,6.28
2018-02-12T04:44:23.586Z,6.22
2018-02-12T04:45:23.031Z,6.2
2018-02-12T04:46:23.603Z,6.24
2018-02-12T04:47:23.332Z,6.28
2018-02-12T04:48:23.347Z,6.19
2018-02-12T04:49:23.352Z,6.22
2018-02-12T04:50:23.365Z,6.26
2018-02-12T04:51:23.375Z,6.2
2018-02-12T04:52:23.386Z,6.24
2018-02-12T04:53:23.398Z,6.24
2018-02-12T04:54:23.412Z,6.27
2018-02-12T04:55:23.420Z,6.27
2018-02-12T04:56:23.715Z,6.17
2018-02-12T04:57:23.161Z,6.16
2018-02-12T04:58:23.504Z,6.22
2018-02-12T04:59:23.744Z,6.17
2018-02-12T05:00:23.755Z,6.16
2018-02-12T05:01:23.765Z,6.16
2018-02-12T05:02:23.494Z,6.14
2018-02-12T05:03:23.556Z,6.16
2018-02-12T05:04:23.515Z,6.16
2018-02-12T05:05:23.538Z,6.09
2018-02-12T05:06:23.561Z,6.11
2018-02-12T05:07:23.834Z,6.05
2018-02-12T05:08:23.607Z,6.07
2018-02-12T05:09:23.575Z,6.05
2018-02-12T05:10:23.863Z,5.97
2018-02-12T05:11:23.870Z,6.02
2018-02-12T05:12:23.334Z,6.08
2018-02-12T05:13:23.614Z,6.02
2018-02-12T05:14:23.625Z,5.97
2018-02-12T05:15:23.636Z,5.93
2018-02-12T05:16:23.365Z,5.97
2018-02-12T05:17:23.656Z,5.97
2018-02-12T05:18:23.387Z,5.99
2018-02-12T05:19:23.680Z,6.04
2018-02-12T05:20:23.973Z,5.87
2018-02-12T05:21:23.701Z,6.04
2018-02-12T05:22:23.993Z,5.94
2018-02-12T05:23:24.050Z,5.9
2018-02-12T05:24:23.732Z,5.91
2018-02-12T05:25:24.025Z,5.93
2018-02-12T05:26:23.754Z,5.91
2018-02-12T05:27:23.485Z,5.93
2018-02-12T05:28:23.925Z,5.98
2018-02-12T05:29:24.066Z,5.94
2018-02-12T05:30:23.795Z,5.97
2018-02-12T05:31:23.805Z,5.97
2018-02-12T05:32:23.826Z,5.93
2018-02-12T05:33:23.697Z,6.01
2018-02-12T05:34:23.558Z,5.9
2018-02-12T05:35:23.850Z,5.97
2018-02-12T05:36:23.858Z,5.94
2018-02-12T05:37:23.868Z,5.89
2018-02-12T05:38:23.934Z,5.98
2018-02-12T05:39:23.893Z,5.94
2018-02-12T05:40:23.900Z,5.99
2018-02-12T05:41:23.912Z,5.94
2018-02-12T05:42:24.205Z,5.98
2018-02-12T05:43:24.217Z,5.99
2018-02-12T05:44:23.948Z,5.91
2018-02-12T05:45:23.960Z,5.94
2018-02-12T05:46:24.250Z,5.94
2018-02-12T05:47:23.696Z,5.93
2018-02-12T05:48:23.996Z,5.93
2018-02-12T05:49:24.014Z,5.98
2018-02-12T05:50:24.295Z,5.94
2018-02-12T05:51:24.300Z,5.94
2018-02-12T05:52:24.313Z,5.91
2018-02-12T05:53:24.320Z,5.97
2018-02-12T05:54:24.052Z,5.91
2018-02-12T05:55:24.062Z,5.99
2018-02-12T05:56:24.073Z,5.91
2018-02-12T05:57:24.085Z,5.91
2018-02-12T05:58:24.094Z,5.93
2018-02-12T05:59:24.387Z,5.91
2018-02-12T06:00:24.115Z,5.87
2018-02-12T06:01:24.408Z,5.91
2018-02-12T06:02:24.142Z,5.91
2018-02-12T06:03:24.153Z,5.94
2018-02-12T06:04:23.878Z,5.94
2018-02-12T06:05:24.173Z,5.91
2018-02-12T06:06:24.469Z,5.9
2018-02-12T06:07:24.473Z,5.86
2018-02-12T06:08:24.485Z,5.9
2018-02-12T06:09:24.495Z,5.97
2018-02-12T06:10:24.237Z,5.91
2018-02-12T06:11:24.239Z,5.83
2018-02-12T06:12:23.964Z,5.89
2018-02-12T06:13:24.259Z,5.84
2018-02-12T06:14:24.549Z,5.99
2018-02-12T06:15:24.275Z,5.97
2018-02-12T06:16:24.570Z,5.91
2018-02-12T06:17:24.622Z,5.9
2018-02-12T06:18:24.591Z,5.87
2018-02-12T06:19:24.320Z,6.01
2018-02-12T06:20:24.327Z,5.91
2018-02-12T06:21:24.619Z,5.84
2018-02-12T06:22:24.635Z,5.89
2018-02-12T06:23:24.359Z,5.87
2018-02-12T06:24:24.370Z,5.86
2018-02-12T06:25:24.385Z,5.93
2018-02-12T06:26:24.672Z,5.87
2018-02-12T06:27:24.137Z,5.89
2018-02-12T06:28:24.416Z,5.93
2018-02-12T06:29:24.795Z,5.91
2018-02-12T06:30:24.434Z,5.9
2018-02-12T06:31:24.725Z,5.94
2018-02-12T06:32:24.458Z,6.02
2018-02-12T06:33:24.465Z,5.86
2018-02-12T06:34:24.527Z,5.9
2018-02-12T06:35:24.486Z,5.91
2018-02-12T06:36:24.785Z,5.91
2018-02-12T06:37:24.227Z,5.94
2018-02-12T06:38:24.520Z,5.89
2018-02-12T06:39:24.299Z,5.9
2018-02-12T06:40:24.823Z,5.89
2018-02-12T06:41:24.551Z,5.89
2018-02-12T06:42:24.847Z,5.86
2018-02-12T06:43:24.886Z,5.93
2018-02-12T06:44:24.354Z,5.93
2018-02-12T06:45:24.874Z,5.93
2018-02-12T06:46:24.323Z,5.9
2018-02-12T06:47:24.335Z,5.86
2018-02-12T06:48:24.910Z,5.89
2018-02-12T06:49:24.635Z,5.93
2018-02-12T06:50:24.365Z,5.87
2018-02-12T06:51:24.942Z,5.91
2018-02-12T06:52:24.395Z,5.86
2018-02-12T06:53:24.395Z,5.87
2018-02-12T06:54:24.738Z,5.87
2018-02-12T06:55:24.980Z,5.9
2018-02-12T06:56:24.994Z,5.9
2018-02-12T06:57:24.440Z,5.9
2018-02-12T06:58:24.778Z,5.93
2018-02-12T06:59:24.867Z,5.84
2018-02-12T07:00:24.752Z,5.89
2018-02-12T07:01:25.043Z,5.91
2018-02-12T07:02:24.492Z,5.89
2018-02-12T07:03:25.066Z,5.87
2018-02-12T07:04:25.222Z,5.93
2018-02-12T07:05:24.808Z,5.9
2018-02-12T07:06:24.815Z,5.9
2018-02-12T07:07:24.824Z,6.01
2018-02-12T07:08:25.120Z,5.87
2018-02-12T07:09:24.850Z,5.94
2018-02-12T07:10:24.856Z,5.94
2018-02-12T07:11:25.150Z,5.97
2018-02-12T07:12:25.168Z,5.9
2018-02-12T07:13:24.608Z,5.9
2018-02-12T07:14:24.951Z,5.86
2018-02-12T07:15:24.628Z,5.98
2018-02-12T07:16:25.203Z,5.91
2018-02-12T07:17:24.933Z,5.97
2018-02-12T07:18:24.946Z,5.93
2018-02-12T07:19:24.952Z,5.99
2018-02-12T07:20:24.996Z,5.94
2018-02-12T07:21:25.254Z,5.94
2018-02-12T07:22:25.267Z,5.87
2018-02-12T07:23:24.997Z,5.97
2018-02-12T07:24:25.058Z,5.86
2018-02-12T07:25:25.299Z,6.04
2018-02-12T07:26:24.909Z,5.97
2018-02-12T07:27:25.323Z,5.98
2018-02-12T07:28:24.769Z,6.05
2018-02-12T07:29:25.061Z,6.04
2018-02-12T07:30:25.073Z,6.02
2018-02-12T07:31:28.209Z,6.02
2018-02-12T07:32:25.374Z,5.97
2018-02-12T07:33:25.102Z,6.02
2018-02-12T07:34:25.688Z,6.02
2018-02-12T07:35:25.408Z,6.04
2018-02-12T07:36:25.416Z,6.02
2018-02-12T07:37:25.194Z,6.08
2018-02-12T07:38:25.166Z,6.08
2018-02-12T07:39:25.506Z,6.09
2018-02-12T07:40:25.177Z,6.16
2018-02-12T07:41:24.904Z,6.14
2018-02-12T07:42:25.492Z,6.12
2018-02-12T07:43:25.210Z,6.11
2018-02-12T07:44:25.219Z,6.12
2018-02-12T07:45:25.232Z,6.17
2018-02-12T07:46:25.527Z,6.16
2018-02-12T07:47:25.542Z,6.17
2018-02-12T07:48:25.268Z,6.2
2018-02-12T07:49:25.271Z,6.19
2018-02-12T07:50:25.564Z,6.17
2018-02-12T07:51:25.575Z,6.09
2018-02-12T07:52:25.304Z,6.2
2018-02-12T07:53:25.314Z,6.2
2018-02-12T07:54:25.610Z,6.17
2018-02-12T07:55:25.341Z,6.2
2018-02-12T07:56:25.068Z,6.11
2018-02-12T07:57:25.360Z,6.19
2018-02-12T07:58:25.368Z,6.24
2018-02-12T07:59:25.384Z,6.27
2018-02-12T08:00:25.672Z,6.27
2018-02-12T08:01:25.688Z,6.19
2018-02-12T08:02:25.412Z,6.28
2018-02-12T08:03:25.703Z,6.24
2018-02-12T08:04:25.482Z,6.28
2018-02-12T08:05:25.441Z,6.26
2018-02-12T08:06:25.174Z,6.22
2018-02-12T08:07:25.745Z,6.27
2018-02-12T08:08:25.765Z,6.33
2018-02-12T08:09:25.493Z,6.28
2018-02-12T08:10:25.497Z,6.28
2018-02-12T08:11:25.797Z,6.33
2018-02-12T08:12:25.800Z,6.27
2018-02-12T08:13:25.249Z,6.33
2018-02-12T08:14:25.597Z,6.3
2018-02-12T08:15:25.555Z,6.3
2018-02-12T08:16:25.561Z,6.31
2018-02-12T08:17:25.580Z,6.36
2018-02-12T08:18:25.584Z,6.33
2018-02-12T08:19:25.594Z,6.33
2018-02-12T08:20:25.885Z,6.3
2018-02-12T08:21:25.615Z,6.3
2018-02-12T08:22:25.908Z,6.38
2018-02-12T08:23:25.357Z,6.38
2018-02-12T08:24:26.079Z,6.36
2018-02-12T08:25:25.661Z,6.31
2018-02-12T08:26:25.676Z,6.36
2018-02-12T08:27:25.963Z,6.39
2018-02-12T08:28:25.978Z,6.33
2018-02-12T08:29:25.751Z,6.33
2018-02-12T08:30:25.995Z,6.35
2018-02-12T08:31:25.725Z,6.36
2018-02-12T08:32:25.739Z,6.3
2018-02-12T08:33:25.464Z,6.38
2018-02-12T08:34:25.913Z,6.35
2018-02-12T08:35:26.122Z,6.35
2018-02-12T08:36:26.063Z,6.38
2018-02-12T08:37:26.075Z,6.3
2018-02-12T08:38:25.809Z,6.36
2018-02-12T08:39:26.141Z,6.46
2018-02-12T08:40:25.830Z,6.49
2018-02-12T08:41:25.834Z,6.35
2018-02-12T08:42:25.843Z,6.48
2018-02-12T08:43:26.139Z,6.45
2018-02-12T08:44:25.919Z,6.45
2018-02-12T08:45:25.875Z,6.45
2018-02-12T08:46:25.887Z,6.46
2018-02-12T08:47:25.907Z,6.51
2018-02-12T08:48:25.910Z,6.49
2018-02-12T08:49:25.971Z,6.49
2018-02-12T08:50:25.932Z,6.52
2018-02-12T08:51:26.223Z,6.48
2018-02-12T08:52:25.672Z,6.48
2018-02-12T08:53:25.966Z,6.54
2018-02-12T08:54:26.025Z,6.56
2018-02-12T08:55:25.997Z,6.56
2018-02-12T08:56:26.286Z,6.59
2018-02-12T08:57:25.727Z,6.56
2018-02-12T08:58:26.021Z,6.54
2018-02-12T08:59:26.080Z,6.59
2018-02-12T09:00:26.040Z,6.54
2018-02-12T09:01:26.337Z,6.54
2018-02-12T09:02:26.065Z,6.51
2018-02-12T09:03:26.355Z,6.51
2018-02-12T09:04:26.096Z,6.48
2018-02-12T09:05:26.101Z,6.6
2018-02-12T09:06:26.390Z,6.54
2018-02-12T09:07:26.118Z,6.63
2018-02-12T09:08:26.416Z,6.57
2018-02-12T09:09:26.471Z,6.6
2018-02-12T09:10:26.157Z,6.59
2018-02-12T09:11:25.927Z,6.64
2018-02-12T09:12:25.892Z,6.59
2018-02-12T09:13:26.186Z,6.66
2018-02-12T09:14:26.247Z,6.59
2018-02-12T09:15:26.486Z,6.56
2018-02-12T09:16:26.273Z,6.64
2018-02-12T09:17:26.231Z,6.62
2018-02-12T09:18:26.536Z,6.67
2018-02-12T09:19:26.536Z,6.56
2018-02-12T09:20:26.262Z,6.6
2018-02-12T09:21:26.554Z,6.62
2018-02-12T09:22:26.288Z,6.66
2018-02-12T09:23:26.584Z,6.69
2018-02-12T09:24:26.586Z,6.69
2018-02-12T09:25:26.318Z,6.81
2018-02-12T09:26:26.047Z,6.75
2018-02-12T09:27:26.061Z,6.72
2018-02-12T09:28:26.355Z,6.75
2018-02-12T09:29:26.363Z,6.79
2018-02-12T09:30:26.374Z,6.77
2018-02-12T09:31:26.668Z,6.75
2018-02-12T09:32:26.396Z,6.82
2018-02-12T09:33:26.692Z,6.78
2018-02-12T09:34:26.699Z,6.87
2018-02-12T09:35:26.431Z,6.81
2018-02-12T09:36:26.852Z,6.78
2018-02-12T09:37:26.734Z,6.82
2018-02-12T09:38:26.463Z,6.89
2018-02-12T09:39:26.474Z,6.85
2018-02-12T09:40:26.489Z,6.89
2018-02-12T09:41:26.779Z,6.92
2018-02-12T09:42:26.507Z,6.92
2018-02-12T09:43:26.524Z,6.88
2018-02-12T09:44:26.810Z,6.92
2018-02-12T09:45:26.542Z,6.93
2018-02-12T09:46:26.551Z,6.99
2018-02-12T09:47:26.843Z,7.05
2018-02-12T09:48:26.855Z,7.06
2018-02-12T09:49:26.307Z,7.03
2018-02-12T09:50:26.597Z,7.06
2018-02-12T09:51:26.329Z,7.03
2018-02-12T09:52:26.338Z,7
2018-02-12T09:53:26.633Z,7.03
2018-02-12T09:54:26.925Z,7.07
2018-02-12T09:55:26.653Z,7.1
2018-02-12T09:56:26.669Z,7.18
2018-02-12T09:57:26.677Z,7.15
2018-02-12T09:58:26.970Z,7.14
2018-02-12T09:59:26.984Z,7.14
2018-02-12T10:00:27.045Z,7.18
2018-02-12T10:01:27.004Z,7.15
2018-02-12T10:02:26.456Z,7.23
2018-02-12T10:03:26.744Z,7.2
2018-02-12T10:04:26.475Z,7.29
2018-02-12T10:05:27.285Z,7.33
2018-02-12T10:06:26.785Z,7.31
2018-02-12T10:07:26.795Z,7.29
2018-02-12T10:08:27.083Z,7.31
2018-02-12T10:09:26.812Z,7.35
2018-02-12T10:10:27.155Z,7.35
2018-02-12T10:11:26.559Z,7.36
2018-02-12T10:12:27.129Z,7.33
2018-02-12T10:13:27.146Z,7.36
2018-02-12T10:14:26.592Z,7.38
2018-02-12T10:15:26.886Z,7.4
2018-02-12T10:16:26.898Z,7.4
2018-02-12T10:17:26.626Z,7.47
2018-02-12T10:18:27.201Z,7.43
2018-02-12T10:19:27.214Z,7.48
2018-02-12T10:20:26.993Z,7.48
2018-02-12T10:21:26.953Z,7.48
2018-02-12T10:22:26.972Z,7.42
2018-02-12T10:23:26.982Z,7.51
2018-02-12T10:24:26.707Z,7.48
2018-02-12T10:25:26.723Z,7.53
2018-02-12T10:26:27.014Z,7.63
2018-02-12T10:27:26.745Z,7.57
2018-02-12T10:28:27.318Z,7.69
2018-02-12T10:29:27.049Z,7.7
2018-02-12T10:30:27.347Z,7.69
2018-02-12T10:31:27.355Z,7.72
2018-02-12T10:32:27.083Z,7.7
2018-02-12T10:33:27.378Z,7.79
2018-02-12T10:34:26.826Z,7.76
2018-02-12T10:35:27.450Z,7.79
2018-02-12T10:36:26.850Z,7.77
2018-02-12T10:37:27.151Z,7.82
2018-02-12T10:38:27.155Z,7.79
2018-02-12T10:39:27.166Z,7.75
2018-02-12T10:40:27.251Z,7.9
2018-02-12T10:41:27.473Z,7.8
2018-02-12T10:42:27.484Z,7.93
2018-02-12T10:43:27.504Z,7.94
2018-02-12T10:44:27.230Z,7.93
2018-02-12T10:45:27.118Z,7.91
2018-02-12T10:46:26.968Z,7.94
2018-02-12T10:47:27.282Z,7.94
2018-02-12T10:48:27.277Z,7.93
2018-02-12T10:49:27.284Z,7.88
2018-02-12T10:50:27.641Z,7.93
2018-02-12T10:51:27.311Z,7.95
2018-02-12T10:52:27.332Z,7.88
2018-02-12T10:53:27.335Z,7.95
2018-02-12T10:54:27.348Z,7.93
2018-02-12T10:55:27.228Z,7.93
2018-02-12T10:56:27.375Z,7.9
2018-02-12T10:57:27.429Z,7.91
2018-02-12T10:58:27.112Z,7.94
2018-02-12T10:59:27.126Z,7.9
2018-02-12T11:00:27.752Z,7.91
2018-02-12T11:01:27.715Z,7.93
2018-02-12T11:02:27.734Z,7.94
2018-02-12T11:03:27.457Z,7.95
2018-02-12T11:04:27.464Z,7.97
2018-02-12T11:05:27.528Z,7.88
2018-02-12T11:06:27.490Z,7.93
2018-02-12T11:07:27.533Z,7.87
2018-02-12T11:08:27.559Z,7.87
2018-02-12T11:09:27.535Z,7.83
2018-02-12T11:10:27.589Z,7.75
2018-02-12T11:11:27.343Z,7.83
2018-02-12T11:12:27.329Z,7.79
2018-02-12T11:13:27.578Z,7.87
2018-02-12T11:14:27.590Z,7.76
2018-02-12T11:15:27.320Z,7.75
2018-02-12T11:16:27.609Z,7.79
2018-02-12T11:17:27.903Z,7.82
2018-02-12T11:18:27.355Z,7.79
2018-02-12T11:19:27.648Z,7.95
2018-02-12T11:20:27.710Z,7.85
2018-02-12T11:21:27.676Z,7.93
2018-02-12T11:22:27.964Z,7.85
2018-02-12T11:23:27.696Z,7.83
2018-02-12T11:24:27.708Z,7.8
2018-02-12T11:25:27.722Z,7.91
2018-02-12T11:26:28.012Z,7.97
2018-02-12T11:27:27.745Z,7.93
2018-02-12T11:28:28.090Z,7.94
2018-02-12T11:29:27.774Z,7.9
2018-02-12T11:30:27.498Z,7.91
2018-02-12T11:31:28.138Z,7.97
2018-02-12T11:32:27.806Z,8.01
2018-02-12T11:33:27.823Z,8.01
2018-02-12T11:34:28.110Z,7.98
2018-02-12T11:35:28.123Z,8
2018-02-12T11:36:27.854Z,8.09
2018-02-12T11:37:27.869Z,8.05
2018-02-12T11:38:27.880Z,8.12
2018-02-12T11:39:28.172Z,8.16
2018-02-12T11:40:28.183Z,8.18
2018-02-12T11:41:27.632Z,8.16
2018-02-12T11:42:28.207Z,8.27
2018-02-12T11:43:28.226Z,8.24
2018-02-12T11:44:28.237Z,8.24
2018-02-12T11:45:27.965Z,8.31
2018-02-12T11:46:28.265Z,8.34
2018-02-12T11:47:27.991Z,8.33
2018-02-12T11:48:27.999Z,8.34
2018-02-12T11:49:28.012Z,8.36
2018-02-12T11:50:27.749Z,8.45
2018-02-12T11:51:28.048Z,8.38
2018-02-12T11:52:27.767Z,8.46
2018-02-12T11:53:28.343Z,8.38
2018-02-12T11:54:28.077Z,8.41
2018-02-12T11:55:28.372Z,8.42
2018-02-12T11:56:28.385Z,8.46
2018-02-12T11:57:28.110Z,8.36
2018-02-12T11:58:28.409Z,8.46
2018-02-12T11:59:28.420Z,8.41
2018-02-12T12:00:28.149Z,8.31
2018-02-12T12:01:28.162Z,8.38
2018-02-12T12:02:27.893Z,8.34
2018-02-12T12:03:27.905Z,8.36
2018-02-12T12:04:28.200Z,8.38
2018-02-12T12:05:28.214Z,8.31
2018-02-12T12:06:28.225Z,8.37
2018-02-12T12:07:28.276Z,8.36
2018-02-12T12:08:27.968Z,8.34
2018-02-12T12:09:27.982Z,8.3
2018-02-12T12:10:28.612Z,8.36
2018-02-12T12:11:28.291Z,8.37
2018-02-12T12:12:28.581Z,8.37
2018-02-12T12:13:28.310Z,8.31
2018-02-12T12:14:28.324Z,8.36
2018-02-12T12:15:28.620Z,8.3
2018-02-12T12:16:28.501Z,8.33
2018-02-12T12:17:28.642Z,8.37
2018-02-12T12:18:28.374Z,8.34
2018-02-12T12:19:28.669Z,8.34
2018-02-12T12:20:28.121Z,8.3
2018-02-12T12:21:28.462Z,8.36
2018-02-12T12:22:28.145Z,8.33
2018-02-12T12:23:28.437Z,8.41
2018-02-12T12:24:28.729Z,8.45
2018-02-12T12:25:28.462Z,8.42
2018-02-12T12:26:28.245Z,8.44
2018-02-12T12:27:28.773Z,8.45
2018-02-12T12:28:28.223Z,8.49
2018-02-12T12:29:28.797Z,8.44
2018-02-12T12:30:28.530Z,8.58
2018-02-12T12:31:28.536Z,8.51
2018-02-12T12:32:28.268Z,8.58
2018-02-12T12:33:28.843Z,8.63
2018-02-12T12:34:28.573Z,8.67
2018-02-12T12:35:28.956Z,8.71
2018-02-12T12:36:28.931Z,8.67
2018-02-12T12:37:28.614Z,8.69
2018-02-12T12:38:28.625Z,8.69
2018-02-12T12:39:28.637Z,8.73
2018-02-12T12:40:28.930Z,8.78
2018-02-12T12:41:28.714Z,8.79
2018-02-12T12:42:28.676Z,8.78
2018-02-12T12:43:28.688Z,8.74
2018-02-12T12:44:28.700Z,8.89
2018-02-12T12:45:28.432Z,8.79
2018-02-12T12:46:28.729Z,8.79
2018-02-12T12:47:28.464Z,8.82
2018-02-12T12:48:28.753Z,8.74
2018-02-12T12:49:28.513Z,8.74
2018-02-12T12:50:28.777Z,8.84
2018-02-12T12:51:28.791Z,8.76
2018-02-12T12:52:29.089Z,8.79
2018-02-12T12:53:28.825Z,8.7
2018-02-12T12:54:28.858Z,8.71
2018-02-12T12:55:28.840Z,8.73
2018-02-12T12:56:28.903Z,8.67
2018-02-12T12:57:28.865Z,8.66
2018-02-12T12:58:29.161Z,8.67
2018-02-12T12:59:28.892Z,8.7
2018-02-12T13:00:28.905Z,8.71
2018-02-12T13:01:29.300Z,8.7
2018-02-12T13:02:28.937Z,8.7
2018-02-12T13:03:29.230Z,8.73
2018-02-12T13:04:29.265Z,8.66
2018-02-12T13:05:28.971Z,8.7
2018-02-12T13:06:28.751Z,8.7
2018-02-12T13:07:28.999Z,8.73
2018-02-12T13:08:29.064Z,8.7
2018-02-12T13:09:29.026Z,8.66
2018-02-12T13:10:29.037Z,8.64
2018-02-12T13:11:29.114Z,8.66
2018-02-12T13:12:28.779Z,8.66
2018-02-12T13:13:28.790Z,8.6
2018-02-12T13:14:29.372Z,8.63
2018-02-12T13:15:29.381Z,8.52
2018-02-12T13:16:29.165Z,8.53
2018-02-12T13:17:28.845Z,8.52
2018-02-12T13:18:29.136Z,8.48
2018-02-12T13:19:29.153Z,8.51
2018-02-12T13:20:28.886Z,8.37
2018-02-12T13:21:28.943Z,8.36